Home > Products > Valid Products > TAF

000
FTUS43 KTOP 012300
TAFTOP
TAF
KTOP 012329Z 0200/0224 VRB03KT P6SM SCT040
     FM020800 VRB02KT 4SM BR FEW040
     FM021400 04004KT P6SM SKC=



000
FTUS43 KTOP 011700
TAFTOP
TAF
KTOP 011739Z 0118/0218 28006KT P6SM SCT050
     FM020200 01004KT P6SM SCT200
     FM020900 VRB02KT 4SM BR FEW250
     FM021400 04004KT P6SM FEW250=



000
FTUS43 KTOP 011600 AAA
TAFTOP
TAF AMD
KTOP 011605Z 0116/0212 26007KT P6SM SCT040
     FM011900 33008KT P6SM SCT030 BKN090
     FM012300 01007KT P6SM VCTS SCT035CB BKN090
     FM020200 01004KT P6SM SCT015 BKN150=



000
FTUS43 KTOP 011100 AAB
TAFTOP
TAF AMD
KTOP 011159Z 0112/0212 21009KT P6SM SCT011
     FM011500 26007KT P6SM SCT015 BKN025
     FM011900 33008KT P6SM SCT030 BKN090
     FM012300 01007KT P6SM VCTS SCT035CB BKN090
     FM020200 01004KT P6SM SCT015 BKN150=



000
FTUS43 KTOP 011100 AAA
TAFTOP
TAF AMD
KTOP 011133Z 0112/0212 21009KT P6SM BKN011
     FM011500 26007KT P6SM SCT015 BKN025
     FM011900 33008KT P6SM SCT030 BKN090
     FM012300 01007KT P6SM VCTS SCT035CB BKN090
     FM020200 01004KT P6SM SCT015 BKN150=



000
FTUS43 KTOP 011100
TAFTOP
TAF
KTOP 011120Z 0112/0212 21009KT P6SM FEW012 SCT080
     FM011500 26007KT P6SM SCT015 BKN025
     FM011900 33008KT P6SM SCT030 BKN090
     FM012300 01007KT P6SM VCTS SCT035CB BKN090
     FM020200 01004KT P6SM SCT015 BKN150=



000
FTUS43 KTOP 010800 AAB
TAFTOP
TAF AMD
KTOP 010858Z 0109/0206 15007KT 6SM -RA BR VCTS SCT015 BKN070CB
      TEMPO 0109/0113 4SM BR SCT010
     FM011300 32007KT P6SM SCT025 BKN150
     FM012000 36008KT P6SM VCTS SCT035CB BKN150
     FM020200 02005KT P6SM OVC050=



000
FTUS43 KTOP 010700 AAA
TAFTOP
TAF AMD
KTOP 010740Z 0108/0206 15007KT 4SM RA BR VCTS SCT015 BKN070CB
      TEMPO 0109/0113 1SM BR SCT010
     FM011300 32007KT P6SM SCT025 BKN150
     FM012000 36008KT P6SM VCTS SCT035CB BKN150
     FM020200 02005KT P6SM OVC050=



000
FTUS43 KTOP 010500
TAFTOP
TAF
KTOP 010534Z 0106/0206 16010KT 6SM RA BR VCTS SCT040CB BKN090
     FM010800 17006KT 4SM RA BR VCTS SCT015 BKN090CB
      TEMPO 0110/0114 1SM BR BKN010
     FM011500 32007KT P6SM SCT025 BKN150
     FM012000 36008KT P6SM VCTS SCT035CB BKN150
     FM020200 02005KT P6SM OVC050=



000
FTUS43 KTOP 010400 AAE
TAFTOP
TAF AMD
KTOP 010404Z 0104/0124 15012KT P6SM RA VCTS SCT040CB BKN090
      TEMPO 0106/0109 3SM TSRA SCT015 BKN025CB
     FM011300 33007KT P6SM SCT030 BKN150=



000
FTUS43 KTOP 010300 AAD
TAFTOP
TAF AMD
KTOP 010331Z 0104/0124 18012KT 3SM TSRA BR BKN040CB
     FM010500 20009KT P6SM RA VCTS SCT040CB BKN100
      TEMPO 0106/0109 2SM TSRA SCT015 BKN025CB
     FM011300 33007KT P6SM SCT030 BKN150=



000
FTUS43 KTOP 010300 AAC
TAFTOP
TAF AMD
KTOP 010325Z 0103/0124 18013G21KT 3SM TSRA BR BKN050CB
      TEMPO 0103/0104 VRB25G35KT 1SM +TSRA BKN015CB
     FM010500 20009KT P6SM RA VCTS SCT040CB BKN100
      TEMPO 0106/0109 2SM TSRA SCT015 BKN025CB
     FM011300 33007KT P6SM SCT030 BKN150=



000
FTUS43 KTOP 010100 AAB
TAFTOP
TAF AMD
KTOP 010137Z 0102/0124 16016G23KT P6SM BKN250
     FM010215 17013G21KT 4SM TSRA BR BKN050CB
      TEMPO 0103/0105 VRB25G40KT 1/2SM +TSRA FG BKN015CB
     FM010600 22008KT P6SM VCTS BKN030CB
     FM010800 21006KT P6SM BKN150
     FM011800 33008KT P6SM SCT200=



000
FTUS43 KTOP 010100 AAA
TAFTOP
TAF AMD
KTOP 010122Z 0101/0124 16016G23KT P6SM BKN250
     FM010230 17013G21KT P6SM VCTS BKN050CB
      TEMPO 0103/0107 VRB25G40KT 2SM +TSRA BR BKN025CB
     FM010900 21006KT P6SM BKN150
     FM011800 33008KT P6SM SCT200=



000
FTUS43 KTOP 312300
TAFTOP
TAF
KTOP 312328Z 0100/0124 18016G23KT P6SM BKN250
     FM010300 17013G21KT P6SM VCTS BKN050CB
      TEMPO 0103/0107 VRB25G40KT 2SM +TSRA BR BKN025CB
     FM010900 21006KT P6SM BKN150
     FM011800 33008KT P6SM SCT200=



000
FTUS43 KTOP 311700
TAFTOP
TAF
KTOP 311735Z 3118/0118 18016G25KT P6SM SCT120
     FM010300 17013G21KT P6SM VCTS BKN050CB
      TEMPO 0104/0108 VRB20G35KT 3SM TSRA BR BKN040CB
     FM010900 21006KT P6SM SCT150=



000
FTUS43 KTOP 311600 AAA
TAFTOP
TAF AMD
KTOP 311612Z 3116/0112 18007G16KT P6SM BKN120
     FM311800 18016G26KT P6SM FEW050
     FM010400 17013G22KT 4SM TSRA BKN050CB
     FM010900 36006KT P6SM SCT150=



000
FTUS43 KTOP 311100
TAFTOP
TAF
KTOP 311134Z 3112/0112 18005KT P6SM SCT120
     FM311600 18007G16KT P6SM VCTS BKN100CB
     FM311800 18016G26KT P6SM FEW050
     FM010400 17013G22KT 4SM TSRA BKN050CB
     FM010900 36006KT P6SM SCT150=



000
FTUS43 KTOP 310500
TAFTOP
TAF
KTOP 310520Z 3106/0106 15003KT P6SM SKC
     FM311500 18012G18KT P6SM FEW070 SCT150
     FM010300 16010KT P6SM VCTS BKN070CB=



000
FTUS43 KTOP 302300
TAFTOP
TAF
KTOP 302322Z 3100/3124 16005KT P6SM SKC
     FM311800 19010G15KT P6SM SCT120 SCT250=



000
FTUS43 KTOP 301700
TAFTOP
TAF
KTOP 301720Z 3018/3118 VRB03KT P6SM SKC
     FM310700 16004KT P6SM SCT250
     FM311400 19011KT P6SM SCT100 SCT250=



000
FTUS43 KTOP 301100
TAFTOP
TAF
KTOP 301120Z 3012/3112 00000KT P6SM MIFG SKC
     FM301300 VRB03KT P6SM SKC
     FM310300 14005KT P6SM SKC=



000
FTUS43 KTOP 300700 AAA
TAFTOP
TAF AMD
KTOP 300750Z 3008/3106 VRB03KT P6SM SKC
      TEMPO 3009/3012 1SM MIFG SKC
     FM302100 14005KT P6SM SKC=



000
FTUS43 KTOP 300500
TAFTOP
TAF
KTOP 300520Z 3006/3106 VRB03KT P6SM SKC
      TEMPO 3008/3012 1SM MIFG SKC
     FM302100 14005KT P6SM SKC=



    US Dept of Commerce
    National Oceanic and Atmospheric Administration
    National Weather Service
    1325 East West Highway
    Silver Spring, MD 20910
    Page Author: NWS Internet Services Team
Disclaimer
Information Quality
Credits
Glossary
Privacy Policy
Freedom of Information Act (FOIA)
About Us
Career Opportunities